Time;durP1;ratioP1;P1;durP2;ratioP2;P2;SDS_P1;SDS_P2;PMS_P1;PMS_P2;Temp;Humidity;BMP_temperature;BMP_pressure;BME280_temperature;BME280_humidity;BME280_pressure;Samples;Min_cycle;Max_cycle;Signal;HPM_P1;HPM_P2
2022/09/07 00:01:40;;;;;;;;;;;22.70;99.90;;;;;;5065659;28;19916;-75
2022/09/07 00:04:08;;;;;;;;;;;22.70;99.90;;;;;;5065558;28;19908;-74
2022/09/07 00:06:34;;;;;;;;;;;22.70;99.90;;;;;;5068001;28;20373;-74
2022/09/07 00:09:00;;;;;;;;;;;22.70;99.90;;;;;;5077620;28;20056;-77
2022/09/07 00:11:26;;;;;;;;;;;22.70;99.90;;;;;;5091776;28;19909;-79
2022/09/07 00:13:52;;;;;;;;;;;22.70;99.90;;;;;;5085932;28;20302;-76
2022/09/07 00:16:22;;;;;;;;;;;22.60;99.90;;;;;;5088935;28;19916;-76
2022/09/07 00:18:48;;;;;;;;;;;22.60;99.90;;;;;;5083632;28;19908;-75
2022/09/07 00:21:15;;;;;;;;;;;22.60;99.90;;;;;;5068158;28;19923;-74
2022/09/07 00:23:40;;;;;;;;;;;22.60;99.90;;;;;;5067713;28;19919;-74
2022/09/07 00:26:10;;;;;;;;;;;22.40;99.90;;;;;;5050101;28;20011;-75
2022/09/07 00:28:36;;;;;;;;;;;22.40;99.90;;;;;;5073224;28;19916;-74
2022/09/07 00:31:02;;;;;;;;;;;22.30;99.90;;;;;;5066152;28;19908;-73
2022/09/07 00:33:28;;;;;;;;;;;22.40;99.90;;;;;;5068106;28;19917;-74
2022/09/07 00:35:54;;;;;;;;;;;22.50;99.90;;;;;;5068613;28;19912;-74
2022/09/07 00:38:19;;;;;;;;;;;22.50;99.90;;;;;;5073772;28;20331;-74
2022/09/07 00:40:45;;;;;;;;;;;22.40;99.90;;;;;;5064396;28;19962;-74
2022/09/07 00:43:14;;;;;;;;;;;22.40;99.90;;;;;;5063126;28;20023;-75
2022/09/07 00:45:40;;;;;;;;;;;22.40;99.90;;;;;;5064674;28;20357;-74
2022/09/07 00:48:08;;;;;;;;;;;22.50;99.90;;;;;;5050771;28;19909;-76
2022/09/07 00:50:36;;;;;;;;;;;22.40;99.90;;;;;;5047727;28;19913;-74
2022/09/07 00:53:04;;;;;;;;;;;22.40;99.90;;;;;;5049347;28;19923;-74
2022/09/07 00:55:31;;;;;;;;;;;22.40;99.90;;;;;;5069425;28;19955;-75
2022/09/07 00:57:57;;;;;;;;;;;22.50;99.90;;;;;;5068290;28;19909;-74
2022/09/07 01:00:24;;;;;;;;;;;22.50;99.90;;;;;;5060829;28;19966;-75
2022/09/07 01:02:50;;;;;;;;;;;22.50;99.90;;;;;;5063359;28;19915;-75
2022/09/07 01:05:20;;;;;;;;;;;22.50;99.90;;;;;;5063355;28;19913;-74
2022/09/07 01:07:45;;;;;;;;;;;22.50;99.90;;;;;;5066419;28;19915;-73
2022/09/07 01:10:11;;;;;;;;;;;22.50;99.90;;;;;;5046600;28;20211;-74
2022/09/07 01:12:37;;;;;;;;;;;22.50;99.90;;;;;;5048658;28;19956;-74
2022/09/07 01:15:03;;;;;;;;;;;22.50;99.90;;;;;;5048388;28;20007;-75
2022/09/07 01:17:50;;;;;;;;;;;22.50;99.90;;;;;;5064228;28;19916;-75
2022/09/07 01:20:42;;;;;;;;;;;22.50;99.90;;;;;;5063401;28;20387;-73
2022/09/07 01:23:18;;;;;;;;;;;22.30;99.90;;;;;;5060942;28;19994;-74
2022/09/07 01:26:09;;;;;;;;;;;22.40;99.90;;;;;;5064468;28;19916;-74
2022/09/07 01:28:36;;;;;;;;;;;22.30;99.90;;;;;;5064333;28;19920;-74
2022/09/07 01:31:20;;;;;;;;;;;22.30;99.90;;;;;;5064080;28;20409;-73
2022/09/07 01:33:45;;;;;;;;;;;22.30;99.90;;;;;;5065257;28;19923;-79
2022/09/07 01:36:25;;;;;;;;;;;22.30;99.90;;;;;;5065604;28;19908;-74
2022/09/07 01:38:56;;;;;;;;;;;22.40;99.90;;;;;;5044104;28;19983;-75
2022/09/07 01:41:21;;;;;;;;;;;22.40;99.90;;;;;;5050385;28;19908;-75
2022/09/07 01:43:59;;;;;;;;;;;22.40;99.90;;;;;;5038263;28;19931;-74
2022/09/07 01:46:38;;;;;;;;;;;22.30;99.90;;;;;;5062482;28;19909;-74
2022/09/07 01:49:13;;;;;;;;;;;22.20;99.90;;;;;;5074268;28;19998;-73
2022/09/07 01:51:42;;;;;;;;;;;22.20;99.90;;;;;;5062758;28;19986;-77
2022/09/07 01:54:11;;;;;;;;;;;22.20;99.90;;;;;;5068297;28;20010;-74
2022/09/07 01:56:39;;;;;;;;;;;22.20;99.90;;;;;;5063377;28;19908;-73
2022/09/07 01:59:22;;;;;;;;;;;22.20;99.90;;;;;;5063746;28;19920;-76
2022/09/07 02:01:47;;;;;;;;;;;22.10;99.90;;;;;;5065901;28;19916;-74
2022/09/07 02:04:18;;;;;;;;;;;22.10;99.90;;;;;;5065770;28;19916;-73
2022/09/07 02:06:56;;;;;;;;;;;22.10;99.90;;;;;;5066671;28;20207;-74
2022/09/07 02:09:22;;;;;;;;;;;22.10;99.90;;;;;;5066660;28;20374;-74
2022/09/07 02:11:49;;;;;;;;;;;22.20;99.90;;;;;;5051108;28;20025;-74
2022/09/07 02:14:21;;;;;;;;;;;22.20;99.90;;;;;;5064918;28;19923;-74
2022/09/07 02:16:58;;;;;;;;;;;22.20;99.90;;;;;;5064970;28;19908;-76
2022/09/07 02:19:27;;;;;;;;;;;22.10;99.90;;;;;;5046259;28;19947;-76
2022/09/07 02:21:57;;;;;;;;;;;22.10;99.90;;;;;;5067905;28;20255;-76
2022/09/07 02:24:24;;;;;;;;;;;22.00;99.90;;;;;;5063357;28;20286;-78
2022/09/07 02:26:52;;;;;;;;;;;22.10;99.90;;;;;;5065866;28;19975;-74
2022/09/07 02:29:18;;;;;;;;;;;22.10;99.90;;;;;;5050770;28;19908;-74
2022/09/07 02:31:43;;;;;;;;;;;22.00;99.90;;;;;;5069592;28;19936;-75
2022/09/07 02:34:09;;;;;;;;;;;22.00;99.90;;;;;;5066286;28;20906;-77
2022/09/07 02:36:43;;;;;;;;;;;22.00;99.90;;;;;;5045894;28;20022;-73
2022/09/07 02:39:08;;;;;;;;;;;22.00;99.90;;;;;;5061419;28;19912;-73
2022/09/07 02:41:39;;;;;;;;;;;22.00;99.90;;;;;;5046637;28;20354;-73
2022/09/07 02:44:11;;;;;;;;;;;22.10;99.90;;;;;;5061617;28;20019;-72
2022/09/07 02:46:52;;;;;;;;;;;22.00;99.90;;;;;;5062357;28;19909;-74
2022/09/07 02:49:33;;;;;;;;;;;22.00;99.90;;;;;;5045845;28;19908;-73
2022/09/07 02:52:11;;;;;;;;;;;22.00;99.90;;;;;;5049574;28;19908;-74
2022/09/07 02:54:46;;;;;;;;;;;22.00;99.90;;;;;;5073827;28;20362;-72
2022/09/07 02:57:20;;;;;;;;;;;21.90;99.90;;;;;;5050602;28;19913;-75
2022/09/07 02:59:52;;;;;;;;;;;21.90;99.90;;;;;;5064679;28;19927;-73
2022/09/07 03:02:20;;;;;;;;;;;21.90;99.90;;;;;;5051855;28;19952;-74
2022/09/07 03:05:01;;;;;;;;;;;21.90;99.90;;;;;;5067024;28;19966;-74
2022/09/07 03:07:47;;;;;;;;;;;21.90;99.90;;;;;;5050015;28;20290;-74
2022/09/07 03:10:13;;;;;;;;;;;21.90;99.90;;;;;;5038560;28;19928;-73
2022/09/07 03:12:43;;;;;;;;;;;21.90;99.90;;;;;;5063339;28;19977;-76
2022/09/07 03:15:10;;;;;;;;;;;21.90;99.90;;;;;;5072447;28;19966;-74
2022/09/07 03:17:36;;;;;;;;;;;21.80;99.90;;;;;;5085067;28;19947;-73
2022/09/07 03:20:02;;;;;;;;;;;21.90;99.90;;;;;;5074167;28;19947;-72
2022/09/07 03:22:27;;;;;;;;;;;21.90;99.90;;;;;;5054896;28;20296;-75
2022/09/07 03:24:53;;;;;;;;;;;22.00;99.90;;;;;;5066402;28;19935;-74
2022/09/07 03:27:18;;;;;;;;;;;21.90;99.90;;;;;;5067035;28;21406;-73
2022/09/07 03:29:44;;;;;;;;;;;21.90;99.90;;;;;;5049600;28;19955;-75
2022/09/07 03:32:09;;;;;;;;;;;21.90;99.90;;;;;;5068668;28;19914;-73
2022/09/07 03:34:35;;;;;;;;;;;21.90;99.90;;;;;;5048972;28;20362;-74
2022/09/07 03:37:01;;;;;;;;;;;21.90;99.90;;;;;;5050588;28;19916;-74
2022/09/07 03:39:27;;;;;;;;;;;21.90;99.90;;;;;;5050416;28;19912;-75
2022/09/07 03:41:52;;;;;;;;;;;21.90;99.90;;;;;;5050331;28;20227;-75
2022/09/07 03:44:18;;;;;;;;;;;21.90;99.90;;;;;;5067639;28;19999;-73
2022/09/07 03:46:43;;;;;;;;;;;22.00;99.90;;;;;;5048738;28;20022;-74
2022/09/07 03:49:10;;;;;;;;;;;22.00;99.90;;;;;;5065963;28;20360;-73
2022/09/07 03:51:35;;;;;;;;;;;22.10;99.90;;;;;;5063462;28;20358;-72
2022/09/07 03:54:01;;;;;;;;;;;22.10;99.90;;;;;;5051776;28;19940;-72
2022/09/07 03:56:26;;;;;;;;;;;22.10;99.90;;;;;;5070257;28;19908;-74
2022/09/07 03:58:53;;;;;;;;;;;22.10;99.90;;;;;;5073302;28;19904;-73
2022/09/07 04:01:20;;;;;;;;;;;22.20;99.90;;;;;;5066049;28;19912;-73
2022/09/07 04:03:46;;;;;;;;;;;22.30;99.90;;;;;;5065480;28;19965;-74
2022/09/07 04:06:12;;;;;;;;;;;22.20;99.90;;;;;;5050056;28;19909;-73
2022/09/07 04:08:39;;;;;;;;;;;22.20;99.90;;;;;;5059037;28;19905;-73
2022/09/07 04:11:05;;;;;;;;;;;22.30;99.90;;;;;;5070278;28;19989;-74
2022/09/07 04:13:33;;;;;;;;;;;22.30;99.90;;;;;;5053944;28;19905;-73
2022/09/07 04:15:58;;;;;;;;;;;22.30;99.90;;;;;;5036266;28;19909;-74
2022/09/07 04:18:24;;;;;;;;;;;22.20;99.90;;;;;;5068716;28;20058;-76
2022/09/07 04:20:50;;;;;;;;;;;22.10;99.90;;;;;;5066747;28;19967;-77
2022/09/07 04:23:19;;;;;;;;;;;22.10;99.90;;;;;;5079593;28;19955;-75
2022/09/07 04:25:48;;;;;;;;;;;22.00;99.90;;;;;;5076191;28;19948;-75
2022/09/07 04:28:14;;;;;;;;;;;22.20;99.90;;;;;;5057741;28;19908;-74
2022/09/07 04:30:40;;;;;;;;;;;22.30;99.90;;;;;;5076894;28;19908;-73
2022/09/07 04:33:05;;;;;;;;;;;22.30;99.90;;;;;;5078676;28;19962;-73
2022/09/07 04:35:34;;;;;;;;;;;22.40;99.90;;;;;;5072561;28;19995;-74
2022/09/07 04:38:00;;;;;;;;;;;22.60;99.90;;;;;;5065975;28;19999;-73
2022/09/07 04:40:26;;;;;;;;;;;22.60;99.90;;;;;;5066021;28;20117;-75
2022/09/07 04:42:51;;;;;;;;;;;22.60;99.90;;;;;;5065687;28;19914;-76
2022/09/07 04:45:17;;;;;;;;;;;22.70;99.90;;;;;;5047293;28;20003;-76
2022/09/07 04:47:48;;;;;;;;;;;22.70;99.90;;;;;;5063818;28;20325;-75
2022/09/07 04:50:15;;;;;;;;;;;22.70;99.90;;;;;;5068135;28;20051;-73
2022/09/07 04:52:41;;;;;;;;;;;22.70;99.90;;;;;;5054845;28;20372;-73
2022/09/07 04:55:07;;;;;;;;;;;22.80;99.90;;;;;;5083712;28;19915;-74
2022/09/07 04:57:33;;;;;;;;;;;22.80;99.90;;;;;;5079734;28;19909;-77
2022/09/07 04:59:59;;;;;;;;;;;22.80;99.90;;;;;;5065973;28;19908;-76
2022/09/07 05:02:24;;;;;;;;;;;22.80;99.90;;;;;;5048521;28;19912;-74
2022/09/07 05:04:50;;;;;;;;;;;22.80;99.90;;;;;;5063616;28;19955;-74
2022/09/07 05:07:15;;;;;;;;;;;22.80;99.90;;;;;;5043374;28;19909;-74
2022/09/07 05:09:41;;;;;;;;;;;22.80;99.90;;;;;;5048612;28;19912;-74
2022/09/07 05:12:07;;;;;;;;;;;22.90;99.90;;;;;;5047133;28;19940;-74
2022/09/07 05:14:32;;;;;;;;;;;22.90;99.90;;;;;;5049026;28;20389;-74
2022/09/07 05:16:58;;;;;;;;;;;22.90;99.90;;;;;;5069937;28;19912;-73
2022/09/07 05:19:23;;;;;;;;;;;22.90;99.90;;;;;;5052866;28;19916;-74
2022/09/07 05:21:49;;;;;;;;;;;23.00;99.90;;;;;;5050972;28;19962;-76
2022/09/07 05:24:15;;;;;;;;;;;23.00;99.90;;;;;;5066301;28;19916;-74
2022/09/07 05:26:41;;;;;;;;;;;23.10;99.90;;;;;;5069348;28;19909;-75
2022/09/07 05:29:06;;;;;;;;;;;23.20;99.90;;;;;;5071960;28;19951;-76
2022/09/07 05:31:32;;;;;;;;;;;23.20;99.90;;;;;;5069787;28;19920;-74
2022/09/07 05:33:58;;;;;;;;;;;23.30;99.90;;;;;;5067132;28;19916;-74
2022/09/07 05:36:25;;;;;;;;;;;23.40;99.90;;;;;;5066104;28;19912;-76
2022/09/07 05:38:55;;;;;;;;;;;23.50;99.90;;;;;;5069001;28;19912;-73
2022/09/07 05:41:21;;;;;;;;;;;23.50;99.90;;;;;;5065806;28;20381;-77
2022/09/07 05:43:47;;;;;;;;;;;23.60;99.90;;;;;;5064356;28;19909;-74
2022/09/07 05:46:13;;;;;;;;;;;23.70;99.90;;;;;;5064366;28;19915;-73
2022/09/07 05:48:39;;;;;;;;;;;23.70;99.90;;;;;;5064160;28;20011;-75
2022/09/07 05:51:05;;;;;;;;;;;23.70;99.90;;;;;;5065652;28;19908;-74
2022/09/07 05:53:35;;;;;;;;;;;23.80;99.90;;;;;;5085126;28;19924;-78
2022/09/07 05:56:01;;;;;;;;;;;23.80;99.90;;;;;;5086991;28;20075;-80
2022/09/07 05:58:27;;;;;;;;;;;23.90;99.90;;;;;;5069302;28;19897;-75
2022/09/07 06:00:56;;;;;;;;;;;24.10;99.90;;;;;;5086167;28;20370;-76
2022/09/07 06:03:23;;;;;;;;;;;24.20;99.90;;;;;;5069394;28;19908;-76
2022/09/07 06:05:58;;;;;;;;;;;24.30;99.90;;;;;;5076030;28;20038;-75
2022/09/07 06:08:23;;;;;;;;;;;24.30;99.90;;;;;;5063787;28;19908;-75
2022/09/07 06:10:49;;;;;;;;;;;24.50;99.90;;;;;;5064542;28;19931;-77
2022/09/07 06:13:15;;;;;;;;;;;24.60;99.90;;;;;;5047461;28;19943;-74
2022/09/07 06:15:40;;;;;;;;;;;24.70;99.90;;;;;;5063317;28;20313;-74
2022/09/07 06:18:06;;;;;;;;;;;24.90;99.90;;;;;;5064450;28;19908;-75
2022/09/07 06:20:32;;;;;;;;;;;25.10;99.90;;;;;;5064077;28;19909;-74
2022/09/07 06:22:58;;;;;;;;;;;25.30;99.90;;;;;;5064610;28;19924;-74
2022/09/07 06:25:23;;;;;;;;;;;25.30;99.90;;;;;;5062975;28;20133;-74
2022/09/07 06:27:49;;;;;;;;;;;25.40;99.90;;;;;;5049238;28;19935;-76
2022/09/07 06:30:15;;;;;;;;;;;25.50;99.90;;;;;;5068804;28;19912;-76
2022/09/07 06:32:41;;;;;;;;;;;25.60;99.90;;;;;;5054097;28;19904;-73
2022/09/07 06:35:07;;;;;;;;;;;25.90;99.90;;;;;;5062958;28;19916;-76
2022/09/07 06:37:32;;;;;;;;;;;25.80;99.90;;;;;;5065451;28;19908;-74
2022/09/07 06:39:58;;;;;;;;;;;25.70;99.90;;;;;;5064409;28;20322;-74
2022/09/07 06:42:24;;;;;;;;;;;25.50;99.90;;;;;;5058103;28;19942;-74
2022/09/07 06:44:49;;;;;;;;;;;25.30;99.90;;;;;;5062022;28;19912;-75
2022/09/07 06:47:15;;;;;;;;;;;25.20;99.90;;;;;;5060304;28;20371;-76
2022/09/07 06:49:40;;;;;;;;;;;25.20;99.90;;;;;;5060581;28;19908;-74
2022/09/07 06:52:09;;;;;;;;;;;25.20;99.90;;;;;;5062990;28;19922;-74
2022/09/07 06:54:34;;;;;;;;;;;25.30;99.90;;;;;;5064363;28;19916;-75
2022/09/07 06:57:07;;;;;;;;;;;25.30;99.90;;;;;;5045337;28;19923;-74
2022/09/07 06:59:36;;;;;;;;;;;25.50;99.90;;;;;;5046641;28;20062;-73
2022/09/07 07:02:02;;;;;;;;;;;25.70;99.90;;;;;;5044781;28;20370;-74
2022/09/07 07:04:28;;;;;;;;;;;25.90;99.90;;;;;;5065307;28;20286;-74
2022/09/07 07:06:53;;;;;;;;;;;26.00;99.90;;;;;;5065836;28;19913;-73
2022/09/07 07:09:19;;;;;;;;;;;26.20;99.90;;;;;;5048400;28;19909;-75
2022/09/07 07:11:46;;;;;;;;;;;26.30;99.90;;;;;;5070512;28;19939;-74
2022/09/07 07:14:15;;;;;;;;;;;26.30;99.90;;;;;;5071227;28;19940;-75
2022/09/07 07:16:40;;;;;;;;;;;26.40;99.90;;;;;;5067692;28;19909;-73
2022/09/07 07:19:06;;;;;;;;;;;26.50;99.90;;;;;;5070102;28;19970;-74
2022/09/07 07:21:31;;;;;;;;;;;26.50;99.90;;;;;;5052680;28;19971;-73
2022/09/07 07:23:57;;;;;;;;;;;26.40;99.90;;;;;;5065282;28;20012;-76
2022/09/07 07:26:25;;;;;;;;;;;26.30;99.90;;;;;;5078639;28;19922;-74
2022/09/07 07:28:52;;;;;;;;;;;26.20;99.90;;;;;;5062063;28;19957;-74
2022/09/07 07:31:18;;;;;;;;;;;26.20;99.90;;;;;;5070929;28;19999;-76
2022/09/07 07:33:46;;;;;;;;;;;26.10;99.90;;;;;;5050440;28;20045;-75
2022/09/07 07:36:22;;;;;;;;;;;25.90;99.90;;;;;;5056048;28;19909;-75
2022/09/07 07:38:49;;;;;;;;;;;25.90;99.90;;;;;;5074438;28;19904;-74
2022/09/07 07:41:16;;;;;;;;;;;25.90;99.90;;;;;;5088488;28;20014;-73
2022/09/07 07:43:42;;;;;;;;;;;25.90;99.90;;;;;;5074008;28;19908;-71
2022/09/07 07:46:10;;;;;;;;;;;26.10;99.90;;;;;;5072827;28;19916;-71
2022/09/07 07:48:36;;;;;;;;;;;26.00;99.90;;;;;;5071727;28;20188;-70
2022/09/07 07:51:06;;;;;;;;;;;25.80;99.90;;;;;;5048691;28;20004;-68
2022/09/07 07:53:32;;;;;;;;;;;25.50;99.90;;;;;;5085618;28;19947;-69
2022/09/07 07:55:58;;;;;;;;;;;25.30;99.90;;;;;;5072814;28;19908;-70
2022/09/07 07:58:26;;;;;;;;;;;25.20;99.90;;;;;;5072265;28;20251;-68
2022/09/07 08:00:52;;;;;;;;;;;25.10;99.90;;;;;;5072589;28;19996;-70
2022/09/07 08:03:18;;;;;;;;;;;25.00;99.90;;;;;;5072856;28;19904;-68
2022/09/07 08:05:43;;;;;;;;;;;25.00;99.90;;;;;;5079659;28;20182;-68
2022/09/07 08:08:10;;;;;;;;;;;25.10;99.90;;;;;;5092118;28;20401;-68
2022/09/07 08:10:36;;;;;;;;;;;25.00;99.90;;;;;;5093043;28;19904;-68
2022/09/07 08:13:01;;;;;;;;;;;24.90;99.90;;;;;;5093221;28;20003;-67
2022/09/07 08:15:27;;;;;;;;;;;24.90;99.90;;;;;;5074746;28;19965;-68
2022/09/07 08:17:53;;;;;;;;;;;24.80;99.90;;;;;;5074860;28;19958;-69
2022/09/07 08:20:18;;;;;;;;;;;24.70;99.90;;;;;;5077235;28;20421;-69
2022/09/07 08:22:44;;;;;;;;;;;24.60;99.90;;;;;;5076818;28;19908;-70
2022/09/07 08:25:10;;;;;;;;;;;24.60;99.90;;;;;;5054666;28;19918;-69
2022/09/07 08:27:37;;;;;;;;;;;24.50;99.90;;;;;;5072428;28;20014;-69
2022/09/07 08:30:02;;;;;;;;;;;24.50;99.90;;;;;;5054838;28;19916;-69
2022/09/07 08:32:28;;;;;;;;;;;24.60;99.90;;;;;;5073198;28;20408;-68
2022/09/07 08:34:54;;;;;;;;;;;24.70;99.90;;;;;;5055102;28;19974;-70
2022/09/07 08:37:19;;;;;;;;;;;25.00;99.90;;;;;;5092176;28;19904;-69
2022/09/07 08:39:45;;;;;;;;;;;25.20;99.90;;;;;;5093016;28;19911;-68
2022/09/07 08:42:30;;;;;;;;;;;25.50;99.90;;;;;;5092578;28;19911;-68
2022/09/07 08:45:08;;;;;;;;;;;25.80;99.90;;;;;;5074555;28;19904;-69
2022/09/07 08:47:40;;;;;;;;;;;25.90;99.90;;;;;;5091676;28;20092;-69
2022/09/07 08:50:10;;;;;;;;;;;26.20;99.90;;;;;;5074109;28;19904;-69
2022/09/07 08:52:54;;;;;;;;;;;26.30;99.90;;;;;;5092703;28;19920;-69
2022/09/07 08:55:33;;;;;;;;;;;26.30;99.90;;;;;;5092459;28;19998;-68
2022/09/07 08:58:01;;;;;;;;;;;26.50;99.90;;;;;;5094224;28;19904;-69
2022/09/07 09:00:28;;;;;;;;;;;26.50;99.90;;;;;;5096073;28;19994;-69
2022/09/07 09:02:55;;;;;;;;;;;26.60;99.90;;;;;;5072135;28;19913;-69
2022/09/07 09:05:26;;;;;;;;;;;26.50;99.90;;;;;;5074440;28;20032;-69
2022/09/07 09:08:04;;;;;;;;;;;26.40;99.90;;;;;;5094994;28;19904;-68
2022/09/07 09:10:38;;;;;;;;;;;26.30;99.90;;;;;;5094599;28;19904;-69
2022/09/07 09:13:13;;;;;;;;;;;26.20;99.90;;;;;;5092263;28;19915;-68
2022/09/07 09:15:50;;;;;;;;;;;26.10;99.90;;;;;;5073477;28;19957;-69
2022/09/07 09:18:31;;;;;;;;;;;26.00;99.90;;;;;;5082773;28;19915;-68
2022/09/07 09:20:58;;;;;;;;;;;25.90;99.90;;;;;;5090636;28;19903;-68
2022/09/07 09:23:25;;;;;;;;;;;25.60;99.90;;;;;;5092718;28;19931;-68
2022/09/07 09:25:52;;;;;;;;;;;25.60;99.90;;;;;;5092384;28;20083;-68
2022/09/07 09:28:18;;;;;;;;;;;25.70;99.90;;;;;;5092317;28;19911;-68
2022/09/07 09:30:44;;;;;;;;;;;25.90;99.90;;;;;;5092435;28;19912;-68
2022/09/07 09:33:27;;;;;;;;;;;26.00;99.90;;;;;;5084737;28;20390;-67
2022/09/07 09:35:55;;;;;;;;;;;26.10;99.90;;;;;;5053758;28;20306;-69
2022/09/07 09:38:24;;;;;;;;;;;25.90;99.90;;;;;;5053651;28;19904;-68
2022/09/07 09:40:51;;;;;;;;;;;25.90;99.90;;;;;;5053506;28;19912;-69
2022/09/07 09:43:19;;;;;;;;;;;26.00;99.90;;;;;;5071376;28;20006;-73
2022/09/07 09:45:46;;;;;;;;;;;26.00;99.90;;;;;;5053622;28;19983;-71
2022/09/07 09:48:28;;;;;;;;;;;26.00;99.90;;;;;;5061717;28;19931;-68
2022/09/07 09:50:55;;;;;;;;;;;25.90;99.90;;;;;;5071170;28;19908;-69
2022/09/07 09:53:41;;;;;;;;;;;26.00;99.90;;;;;;5082727;28;19904;-69
2022/09/07 09:56:06;;;;;;;;;;;26.10;99.90;;;;;;5090811;28;20377;-69
2022/09/07 09:58:36;;;;;;;;;;;26.30;99.90;;;;;;5091059;28;19904;-69
2022/09/07 10:01:18;;;;;;;;;;;26.40;99.90;;;;;;5073413;28;19915;-68
2022/09/07 10:03:44;;;;;;;;;;;26.30;99.90;;;;;;5067814;28;19924;-68
2022/09/07 10:06:13;;;;;;;;;;;26.30;99.90;;;;;;5071649;28;19909;-70
2022/09/07 10:08:50;;;;;;;;;;;26.40;99.90;;;;;;5070972;28;20152;-68
2022/09/07 10:11:16;;;;;;;;;;;26.40;99.90;;;;;;5071558;28;19911;-69
2022/09/07 10:13:53;;;;;;;;;;;26.20;99.90;;;;;;5071826;28;19904;-69
2022/09/07 10:16:32;;;;;;;;;;;26.10;99.90;;;;;;5071812;28;20320;-68
2022/09/07 10:18:58;;;;;;;;;;;25.90;99.90;;;;;;5079744;28;19908;-69
2022/09/07 10:21:27;;;;;;;;;;;25.90;99.90;;;;;;5080314;28;19908;-69
2022/09/07 10:23:57;;;;;;;;;;;25.90;99.90;;;;;;5082336;28;20003;-69
2022/09/07 10:26:26;;;;;;;;;;;25.80;99.90;;;;;;5072955;28;19930;-68
2022/09/07 10:29:12;;;;;;;;;;;25.80;99.90;;;;;;5072156;28;20018;-69
2022/09/07 10:31:44;;;;;;;;;;;25.90;99.90;;;;;;5054101;28;19904;-69
2022/09/07 10:34:24;;;;;;;;;;;26.00;99.90;;;;;;5071615;28;19952;-69
2022/09/07 10:36:58;;;;;;;;;;;26.10;99.90;;;;;;5086782;28;19995;-69
2022/09/07 10:39:47;;;;;;;;;;;26.20;99.90;;;;;;5091325;28;19904;-69
2022/09/07 10:42:28;;;;;;;;;;;26.20;99.90;;;;;;5091719;28;19958;-69
2022/09/07 10:45:12;;;;;;;;;;;26.30;99.90;;;;;;5091406;28;19915;-69
2022/09/07 10:47:50;;;;;;;;;;;26.30;99.90;;;;;;5078018;28;19955;-68
2022/09/07 10:50:18;;;;;;;;;;;26.40;99.90;;;;;;5071431;28;19988;-69
2022/09/07 10:52:51;;;;;;;;;;;26.60;99.90;;;;;;5052436;28;19908;-68
2022/09/07 10:55:25;;;;;;;;;;;26.60;99.90;;;;;;5057820;28;19919;-69
2022/09/07 10:57:57;;;;;;;;;;;26.70;99.90;;;;;;5072474;28;19904;-68
2022/09/07 11:00:24;;;;;;;;;;;26.60;99.90;;;;;;5073112;28;19970;-69
2022/09/07 11:03:09;;;;;;;;;;;26.70;99.90;;;;;;5072853;28;19916;-68
2022/09/07 11:05:53;;;;;;;;;;;26.70;99.90;;;;;;5066796;28;20549;-70
2022/09/07 11:08:39;;;;;;;;;;;26.60;99.90;;;;;;5072115;28;19908;-69
2022/09/07 11:11:08;;;;;;;;;;;26.40;99.90;;;;;;5057888;28;19912;-68
2022/09/07 11:13:39;;;;;;;;;;;26.50;99.90;;;;;;5078344;28;20282;-68
2022/09/07 11:16:29;;;;;;;;;;;26.30;99.90;;;;;;5054673;28;19935;-69
2022/09/07 11:19:06;;;;;;;;;;;26.30;99.90;;;;;;5057506;28;19988;-69
2022/09/07 11:21:55;;;;;;;;;;;26.60;99.90;;;;;;5057532;28;19908;-69
2022/09/07 11:24:25;;;;;;;;;;;26.90;99.90;;;;;;5069267;28;19923;-70
2022/09/07 11:26:52;;;;;;;;;;;27.10;99.90;;;;;;5065837;28;20416;-69
2022/09/07 11:29:22;;;;;;;;;;;27.10;99.90;;;;;;5064127;28;19908;-69
2022/09/07 11:31:53;;;;;;;;;;;27.20;99.90;;;;;;5056696;28;19908;-68
2022/09/07 11:34:30;;;;;;;;;;;27.20;99.90;;;;;;5072950;28;19909;-69
2022/09/07 11:37:08;;;;;;;;;;;27.20;99.90;;;;;;5073922;28;19952;-69
2022/09/07 11:39:50;;;;;;;;;;;27.20;99.90;;;;;;5077063;28;19911;-69
2022/09/07 11:42:28;;;;;;;;;;;27.30;99.90;;;;;;5077151;28;19978;-67
2022/09/07 11:45:05;;;;;;;;;;;27.60;99.90;;;;;;5077163;28;19909;-68
2022/09/07 11:47:41;;;;;;;;;;;27.50;99.90;;;;;;5056060;28;20390;-70
2022/09/07 11:50:17;;;;;;;;;;;27.50;99.90;;;;;;5075381;28;19911;-69
2022/09/07 11:52:47;;;;;;;;;;;27.50;99.90;;;;;;5078120;28;19908;-69
2022/09/07 11:55:22;;;;;;;;;;;27.30;99.90;;;;;;5074164;28;19912;-70
2022/09/07 11:58:06;;;;;;;;;;;27.30;99.90;;;;;;5089075;28;19912;-68
2022/09/07 12:00:43;;;;;;;;;;;27.40;99.90;;;;;;5093854;28;20415;-69
2022/09/07 12:03:29;;;;;;;;;;;27.00;99.90;;;;;;5078396;28;19916;-68
2022/09/07 12:06:04;;;;;;;;;;;27.30;99.90;;;;;;5073065;28;19908;-68
2022/09/07 12:08:39;;;;;;;;;;;27.60;99.90;;;;;;5054212;28;20427;-69
2022/09/07 12:11:23;;;;;;;;;;;27.90;99.90;;;;;;5061662;28;19922;-69
2022/09/07 12:13:48;;;;;;;;;;;27.90;99.90;;;;;;5072078;28;19912;-68
2022/09/07 12:16:33;;;;;;;;;;;27.90;99.90;;;;;;5065628;28;20003;-68
2022/09/07 12:19:01;;;;;;;;;;;28.00;99.90;;;;;;5072896;28;19908;-69
2022/09/07 12:21:27;;;;;;;;;;;27.80;99.90;;;;;;5054600;28;20393;-69
2022/09/07 12:23:52;;;;;;;;;;;27.80;99.90;;;;;;5054609;28;19913;-68
2022/09/07 12:26:38;;;;;;;;;;;28.00;99.90;;;;;;5073945;28;20261;-69
2022/09/07 12:29:16;;;;;;;;;;;28.30;99.90;;;;;;5057156;28;19922;-69
2022/09/07 12:31:42;;;;;;;;;;;28.60;99.90;;;;;;5066485;28;20006;-68
2022/09/07 12:34:26;;;;;;;;;;;28.80;99.90;;;;;;5054190;28;19909;-68
2022/09/07 12:36:51;;;;;;;;;;;28.80;99.90;;;;;;5072370;28;20015;-69
2022/09/07 12:39:26;;;;;;;;;;;29.10;99.90;;;;;;5080665;28;20315;-69
2022/09/07 12:42:04;;;;;;;;;;;29.30;99.90;;;;;;5071940;28;20255;-70
2022/09/07 12:44:31;;;;;;;;;;;29.40;99.90;;;;;;5070916;28;19939;-68
2022/09/07 12:46:57;;;;;;;;;;;29.70;99.90;;;;;;5070439;28;19911;-68
2022/09/07 12:49:27;;;;;;;;;;;30.00;99.90;;;;;;5072278;28;20438;-69
2022/09/07 12:51:59;;;;;;;;;;;30.00;99.90;;;;;;5069380;28;19917;-68
2022/09/07 12:54:28;;;;;;;;;;;30.10;99.90;;;;;;5050873;28;19963;-68
2022/09/07 12:57:11;;;;;;;;;;;30.20;99.90;;;;;;5080316;28;19905;-68
2022/09/07 12:59:56;;;;;;;;;;;30.20;99.90;;;;;;5072304;28;19916;-69
2022/09/07 13:02:28;;;;;;;;;;;30.20;99.90;;;;;;5047202;28;19915;-68
2022/09/07 13:04:59;;;;;;;;;;;30.40;99.90;;;;;;5066596;28;20358;-68
2022/09/07 13:07:44;;;;;;;;;;;30.40;99.90;;;;;;5063435;28;19912;-69
2022/09/07 13:10:26;;;;;;;;;;;30.50;99.90;;;;;;5076564;28;19916;-69
2022/09/07 13:12:52;;;;;;;;;;;30.60;99.90;;;;;;5071643;28;20285;-69
2022/09/07 13:15:31;;;;;;;;;;;30.40;99.90;;;;;;5066014;28;19931;-68
2022/09/07 13:17:57;;;;;;;;;;;30.30;99.90;;;;;;5068622;28;20355;-69
2022/09/07 13:20:29;;;;;;;;;;;30.20;99.90;;;;;;5052835;28;20011;-67
2022/09/07 13:22:56;;;;;;;;;;;30.00;99.90;;;;;;5066936;28;20397;-68
2022/09/07 13:25:22;;;;;;;;;;;30.00;99.90;;;;;;5071437;28;19912;-68
2022/09/07 13:27:58;;;;;;;;;;;29.90;99.90;;;;;;5071746;28;19908;-69
2022/09/07 13:30:44;;;;;;;;;;;29.90;99.90;;;;;;5069898;28;19909;-70
2022/09/07 13:33:29;;;;;;;;;;;29.90;99.90;;;;;;5062256;28;19920;-67
2022/09/07 13:36:00;;;;;;;;;;;30.00;99.90;;;;;;5060106;28;19916;-67
2022/09/07 13:38:27;;;;;;;;;;;30.10;99.90;;;;;;5056848;28;19905;-67
2022/09/07 13:40:56;;;;;;;;;;;29.90;99.90;;;;;;5075353;28;19908;-72
2022/09/07 13:43:22;;;;;;;;;;;29.90;99.90;;;;;;5078034;28;19954;-71
2022/09/07 13:45:54;;;;;;;;;;;30.00;99.90;;;;;;5066720;28;20010;-71
2022/09/07 13:48:28;;;;;;;;;;;30.10;99.90;;;;;;5059367;28;19909;-70
2022/09/07 13:50:57;;;;;;;;;;;30.30;99.90;;;;;;5057654;28;20271;-71
2022/09/07 13:53:26;;;;;;;;;;;30.00;99.90;;;;;;5077711;28;19928;-71
2022/09/07 13:55:52;;;;;;;;;;;29.80;99.90;;;;;;5076557;28;20015;-72
2022/09/07 13:58:18;;;;;;;;;;;29.50;99.90;;;;;;5077771;28;19987;-71
2022/09/07 14:00:55;;;;;;;;;;;29.50;99.90;;;;;;5058443;28;20379;-71
2022/09/07 14:03:22;;;;;;;;;;;29.80;99.90;;;;;;5047525;28;19963;-71
2022/09/07 14:05:48;;;;;;;;;;;30.00;99.90;;;;;;5054489;28;20293;-71
2022/09/07 14:08:26;;;;;;;;;;;30.10;99.90;;;;;;5071072;28;20109;-72
2022/09/07 14:10:52;;;;;;;;;;;30.20;99.90;;;;;;5071162;28;20051;-71
2022/09/07 14:13:18;;;;;;;;;;;30.30;99.90;;;;;;5069414;28;19970;-72
2022/09/07 14:15:47;;;;;;;;;;;30.30;99.90;;;;;;5065001;28;20477;-74
2022/09/07 14:18:30;;;;;;;;;;;29.90;99.90;;;;;;5073371;28;20436;-71
2022/09/07 14:20:56;;;;;;;;;;;29.80;99.90;;;;;;5069622;28;19955;-70
2022/09/07 14:23:29;;;;;;;;;;;29.50;99.90;;;;;;5069133;28;19904;-70
2022/09/07 14:26:10;;;;;;;;;;;29.10;99.90;;;;;;5070022;28;20010;-71
2022/09/07 14:28:37;;;;;;;;;;;28.70;99.90;;;;;;5069548;28;19908;-72
2022/09/07 14:31:04;;;;;;;;;;;28.10;99.90;;;;;;5068583;28;19930;-71
2022/09/07 14:33:30;;;;;;;;;;;27.90;99.90;;;;;;5068638;28;20329;-74